Terminal Aerodrome Forecast
Issued by NWS

Current Version | Previous Version | Text Only | Print | Product List | Glossary On
Versions: 1 2 3 4 5 6 7 8 9 10 11 12 13 14
611
FTUS46 KMFR 272320
TAFRBG
TAF
KRBG 272320Z 2800/2824 02010KT P6SM SKC
     FM281100 36005KT P6SM OVC015
     FM281900 33010KT P6SM SCT020=

USA.gov is the U.S. government's official web portal to all federal, state and local government web resources and services.